Data for 01/27/2016

Time Sea-Level Adjusted Pressure Absolute Pressure Temperature Relative Humidity Dew Point   
(mb) (inHg) (mb) (inHg) (C) (F) (%) (C) (F)
00:05 1024 30.24 854 25.22 -0.5 31.1 59 -7.6 18.3
00:10 1025 30.27 854 25.22 -0.6 31 58 -7.9 17.8
00:15 1025 30.27 854 25.22 -0.5 31.1 58 -7.9 17.9
00:20 1025 30.27 854 25.22 -0.8 30.6 59 -7.8 18
00:25 1025 30.27 854 25.22 -1.3 29.6 60 -8 17.5
00:30 1025 30.27 854 25.22 -2.2 28.1 63 -8.4 16.9
00:35 1025 30.27 854 25.22 -2.4 27.7 63 -8.5 16.8
00:40 1025 30.27 854 25.22 -2.3 27.8 63 -8.4 16.9
00:45 1025 30.27 854 25.22 -2.4 27.7 66 -7.9 17.8
00:50 1025 30.27 854 25.22 -2.4 27.6 67 -7.8 18
00:55 1025 30.27 854 25.22 -2.2 28 66 -7.8 18
01:00 1025 30.27 854 25.22 -2 28.5 66 -7.6 18.4
01:05 1025 30.27 854 25.22 -1.6 29.2 63 -7.7 18.2
01:10 1025 30.27 854 25.22 -1.5 29.4 64 -7.5 18.6
01:15 1025 30.27 854 25.22 -1.5 29.3 65 -7.3 18.8
01:20 1025 30.27 854 25.22 -1.6 29.1 67 -7 19.4
01:25 1025 30.27 854 25.22 -1.6 29.1 68 -6.8 19.7
01:30 1025 30.27 854 25.22 -1.3 29.7 66 -6.9 19.5
01:35 1025 30.27 854 25.22 -1 30.3 64 -6.9 19.6
01:40 1025 30.27 854 25.22 -0.9 30.4 64 -7 19.4
01:45 1025 30.27 854 25.22 -1.3 29.6 60 -8.1 17.4
01:50 1025 30.27 854 25.22 -1.2 29.8 61 -7.8 17.9
01:55 1025 30.27 854 25.22 -1.1 30.1 58 -8.4 17
02:00 1025 30.27 854 25.22 -1 30.2 55 -9 15.8
02:05 1025 30.27 854 25.22 -0.8 30.5 55 -8.7 16.3
02:10 1025 30.27 854 25.22 -0.4 31.3 54 -8.5 16.7
02:15 1025 30.27 854 25.22 -0.2 31.7 57 -7.8 18
02:20 1025 30.27 854 25.22 0 32.1 57 -7.5 18.4
02:25 1025 30.27 855 25.25 0.1 32.2 57 -7.4 18.7
02:30 1026 30.3 855 25.25 0.1 32.2 57 -7.3 18.8
02:35 1025 30.27 855 25.25 -0.1 31.9 59 -7 19.3
02:40 1025 30.27 854 25.22 -0.4 31.4 61 -7 19.4
02:45 1025 30.27 854 25.22 -0.5 31.2 61 -7 19.3
02:50 1025 30.27 854 25.22 -0.4 31.3 62 -6.9 19.7
02:55 1025 30.27 854 25.22 -0.3 31.4 62 -6.8 19.8
03:00 1025 30.27 854 25.22 0 32 60 -6.9 19.5
03:05 1025 30.27 854 25.22 0.3 32.6 60 -6.5 20.2
03:10 1025 30.27 855 25.25 0.4 32.7 60 -6.4 20.5
03:15 1026 30.3 855 25.25 0.3 32.5 61 -6.3 20.7
03:20 1026 30.3 855 25.25 0.3 32.6 61 -6.2 20.8
03:25 1026 30.3 855 25.25 0.3 32.6 62 -6.2 20.9
03:30 1026 30.3 855 25.25 0.3 32.6 62 -6.1 21
03:35 1026 30.3 855 25.25 0.4 32.7 62 -6.1 21
03:40 1026 30.3 855 25.25 0.2 32.4 62 -6.3 20.7
03:45 1026 30.3 855 25.25 -0 32 61 -6.7 20
03:50 1026 30.3 855 25.25 -0 31.9 60 -7 19.4
03:55 1026 30.3 855 25.25 -0.1 31.8 60 -6.9 19.5
04:00 1026 30.3 855 25.25 -0.1 31.8 59 -7.1 19.2
04:05 1026 30.3 855 25.25 -0.3 31.5 61 -6.8 19.7
04:10 1026 30.3 855 25.25 -0.3 31.4 61 -6.9 19.6
04:15 1026 30.3 856 25.28 -0.5 31.2 61 -7 19.4
04:20 1026 30.3 856 25.28 -0.5 31.1 63 -6.7 20
04:25 1026 30.3 855 25.25 -0.4 31.2 63 -6.7 20
04:30 1026 30.3 855 25.25 -0.4 31.2 62 -6.8 19.7
04:35 1026 30.3 855 25.25 -0.5 31.1 61 -7.1 19.3
04:40 1026 30.3 856 25.28 -0.7 30.8 61 -7.3 18.9
04:45 1026 30.3 856 25.28 -0.8 30.5 62 -7.1 19.2
04:50 1026 30.3 855 25.25 -1 30.2 63 -7.2 19
04:55 1026 30.3 855 25.25 -1.2 29.9 63 -7.3 18.8
05:00 1026 30.3 855 25.25 -1.3 29.6 63 -7.5 18.5
05:05 1026 30.3 855 25.25 -1.4 29.4 65 -7.3 18.9
05:10 1025 30.27 854 25.22 -1.5 29.3 66 -7.1 19.3
05:15 1025 30.27 855 25.25 -1.5 29.3 65 -7.3 18.8
05:20 1026 30.3 855 25.25 -1.7 29 66 -7.3 18.9
05:25 1026 30.3 855 25.25 -1.9 28.6 66 -7.3 18.8
05:30 1026 30.3 855 25.25 -1.8 28.8 66 -7.4 18.7
05:35 1026 30.3 855 25.25 -1.7 28.9 68 -6.8 19.7
05:40 1026 30.3 855 25.25 -1 30.3 65 -6.8 19.8
05:45 1026 30.3 855 25.25 -0.8 30.6 64 -6.8 19.8
05:50 1026 30.3 855 25.25 -1.8 28.8 68 -6.9 19.5
05:55 1026 30.3 855 25.25 -2.7 27.2 71 -7.3 18.9
06:00 1026 30.3 855 25.25 -2.8 27 70 -7.5 18.6
06:05 1026 30.3 855 25.25 -2.9 26.9 70 -7.6 18.3
06:10 1026 30.3 855 25.25 -2.8 26.9 70 -7.5 18.6
06:15 1026 30.3 855 25.25 -2.9 26.8 71 -7.4 18.6
06:20 1026 30.3 855 25.25 -3.1 26.4 73 -7.4 18.7
06:25 1026 30.3 855 25.25 -3.1 26.4 72 -7.5 18.6
06:30 1026 30.3 855 25.25 -3 26.7 71 -7.5 18.4
06:35 1026 30.3 855 25.25 -2.7 27.2 70 -7.3 18.8
06:40 1026 30.3 855 25.25 -2.6 27.2 69 -7.5 18.5
06:45 1026 30.3 855 25.25 -2.3 27.8 68 -7.4 18.7
06:50 1026 30.3 855 25.25 -1.8 28.8 67 -7.1 19.2
06:55 1026 30.3 855 25.25 -0.6 30.9 63 -6.9 19.7
07:00 1026 30.3 855 25.25 -0.5 31.1 62 -6.9 19.5
07:05 1026 30.3 855 25.25 -0.4 31.3 62 -6.8 19.8
07:10 1026 30.3 855 25.25 -0.4 31.2 62 -6.8 19.7
07:15 1025 30.27 855 25.25 -0.2 31.7 60 -6.9 19.5
07:20 1026 30.3 855 25.25 -0.1 31.8 61 -6.8 19.8
07:25 1026 30.3 855 25.25 -0.4 31.2 62 -6.8 19.7
07:30 1026 30.3 855 25.25 -0.8 30.5 63 -6.9 19.5
07:35 1026 30.3 855 25.25 -1.1 30 65 -6.9 19.5
07:40 1026 30.3 855 25.25 -1.7 29 68 -6.8 19.8
07:45 1026 30.3 855 25.25 -2.4 27.7 70 -7.1 19.2
07:50 1026 30.3 855 25.25 -2.4 27.7 68 -7.5 18.4
07:55 1026 30.3 855 25.25 -2 28.4 65 -7.7 18.2
08:00 1026 30.3 855 25.25 -2 28.4 66 -7.6 18.3
08:05 1026 30.3 855 25.25 -2.2 28 66 -7.7 18.1
08:10 1026 30.3 855 25.25 -2.1 28.2 65 -7.8 18
08:15 1026 30.3 855 25.25 -2 28.5 65 -7.6 18.2
08:20 1026 30.3 855 25.25 -2 28.4 65 -7.7 18.2
08:25 1026 30.3 855 25.25 -1.8 28.7 65 -7.6 18.3
08:30 1026 30.3 855 25.25 -1.8 28.7 65 -7.5 18.5
08:35 1026 30.3 855 25.25 -2 28.3 66 -7.5 18.4
08:40 1026 30.3 855 25.25 -2 28.4 66 -7.5 18.4
08:45 1026 30.3 855 25.25 -2.1 28.3 66 -7.5 18.4
08:50 1026 30.3 855 25.25 -2.3 27.8 68 -7.4 18.7
08:55 1026 30.3 855 25.25 -2.7 27.2 69 -7.5 18.4
09:00 1026 30.3 855 25.25 -2.9 26.9 70 -7.6 18.3
09:05 1026 30.3 855 25.25 -2.8 26.9 71 -7.3 18.9
09:10 1026 30.3 856 25.28 -2.6 27.3 69 -7.6 18.4
09:15 1026 30.3 856 25.28 -2.8 27 71 -7.3 18.8
09:20 1026 30.3 856 25.28 -2.9 26.9 73 -7.1 19.2
09:25 1027 30.33 856 25.28 -2.9 26.8 73 -7.1 19.2
09:30 1027 30.33 856 25.28 -3 26.6 72 -7.4 18.7
09:35 1027 30.33 856 25.28 -2.8 27 71 -7.4 18.7
09:40 1027 30.33 856 25.28 -2.6 27.3 70 -7.4 18.7
09:45 1027 30.33 856 25.28 -2.2 28.1 68 -7.3 18.9
09:50 1027 30.33 856 25.28 -1.6 29 67 -6.9 19.5
09:55 1027 30.33 856 25.28 -1.2 29.8 66 -6.7 20
10:00 1027 30.33 856 25.28 -0.9 30.3 66 -6.5 20.2
10:05 1027 30.33 856 25.28 -0.7 30.8 65 -6.5 20.4
10:10 1027 30.33 856 25.28 -0.6 31 65 -6.3 20.7
10:15 1027 30.33 856 25.28 -0.3 31.4 65 -6.1 21
10:20 1027 30.33 856 25.28 -0.1 31.8 66 -5.8 21.6
10:25 1027 30.33 856 25.28 0.4 32.6 64 -5.7 21.7
10:30 1027 30.33 856 25.28 0.7 33.3 62 -5.7 21.8
10:35 1027 30.33 856 25.28 0.9 33.7 63 -5.4 22.3
10:40 1027 30.33 856 25.28 1.2 34.2 65 -4.7 23.5
10:45 1027 30.33 856 25.28 1.4 34.4 65 -4.4 24.1
10:50 1027 30.33 856 25.28 1.2 34.1 68 -4.1 24.6
10:55 1027 30.33 856 25.28 1.4 34.4 68 -4 24.9
11:00 1027 30.33 856 25.28 1.6 34.9 67 -3.8 25.2
11:05 1027 30.33 856 25.28 2.1 35.8 67 -3.5 25.8
11:10 1027 30.33 856 25.28 2.8 37.1 62 -3.9 25.1
11:15 1027 30.33 856 25.28 3.4 38.1 60 -3.7 25.3
11:20 1027 30.33 856 25.28 3.9 39.1 56 -3.9 24.9
11:25 1027 30.33 856 25.28 4.5 40.1 56 -3.6 25.5
11:30 1027 30.33 856 25.28 3.9 39.1 57 -3.9 25
11:35 1027 30.33 856 25.28 4.3 39.7 53 -4.4 24
11:40 1027 30.33 856 25.28 5.1 41.2 52 -3.9 24.9
11:45 1027 30.33 856 25.28 5 41 51 -4.3 24.2
11:50 1027 30.33 856 25.28 4.3 39.7 54 -4.3 24.3
11:55 1027 30.33 856 25.28 4.7 40.4 51 -4.5 23.9
12:00 1027 30.33 857 25.31 4.2 39.5 54 -4.4 24
12:05 1027 30.33 857 25.31 4.1 39.3 54 -4.4 24.1
12:10 1027 30.33 856 25.28 4.2 39.6 53 -4.5 24
12:15 1027 30.33 856 25.28 4.1 39.4 53 -4.6 23.8
12:20 1027 30.33 856 25.28 4.6 40.3 51 -4.8 23.4
12:25 1027 30.33 856 25.28 5.2 41.4 51 -4.2 24.4
12:30 1027 30.33 856 25.28 5.5 41.8 49 -4.5 23.9
12:35 1027 30.33 856 25.28 5.5 41.8 49 -4.4 24.1
12:40 1027 30.33 856 25.28 5.4 41.7 49 -4.5 23.9
12:45 1027 30.33 856 25.28 5.4 41.8 50 -4.2 24.5
12:50 1027 30.33 856 25.28 4.9 40.9 52 -4.1 24.7
12:55 1027 30.33 856 25.28 4 39.2 55 -4.2 24.5
13:00 1027 30.33 856 25.28 3.7 38.7 55 -4.4 24.1
13:05 1027 30.33 856 25.28 3.7 38.7 56 -4.2 24.4
13:10 1027 30.33 857 25.31 3.7 38.6 56 -4.3 24.3
13:15 1027 30.33 857 25.31 3.7 38.6 57 -4.1 24.6
13:20 1027 30.33 857 25.31 4.2 39.6 54 -4.2 24.5
13:25 1027 30.33 856 25.28 4.4 39.9 55 -3.9 25
13:30 1027 30.33 856 25.28 4.4 40 53 -4.4 24.1
13:35 1027 30.33 856 25.28 4.5 40.2 53 -4.3 24.3
13:40 1027 30.33 856 25.28 4.4 39.8 53 -4.4 24.1
13:45 1027 30.33 856 25.28 4.8 40.6 53 -3.9 24.9
13:50 1027 30.33 856 25.28 5 41.1 53 -3.7 25.4
13:55 1027 30.33 856 25.28 5 40.9 52 -4.2 24.5
14:00 1027 30.33 856 25.28 5.2 41.4 50 -4.5 24
14:05 1027 30.33 856 25.28 5.7 42.3 50 -4 24.7
14:10 1027 30.33 856 25.28 6 42.7 50 -3.6 25.5
14:15 1027 30.33 856 25.28 5.6 42 51 -3.8 25.2
14:20 1026 30.3 856 25.28 5.2 41.4 53 -3.6 25.5
14:25 1026 30.3 856 25.28 5.4 41.7 51 -3.9 25
14:30 1026 30.3 856 25.28 5.7 42.2 50 -3.9 25.1
14:35 1026 30.3 856 25.28 6.1 42.9 49 -3.7 25.3
14:40 1026 30.3 855 25.25 6.6 43.8 47 -3.9 25
14:45 1026 30.3 855 25.25 6.6 43.8 47 -3.9 25
14:50 1026 30.3 855 25.25 6.5 43.7 48 -3.8 25.2
14:55 1026 30.3 855 25.25 6.3 43.3 47 -4.2 24.5
15:00 1026 30.3 855 25.25 6.3 43.4 47 -4.1 24.7
15:05 1026 30.3 855 25.25 6.2 43.2 50 -3.5 25.7
15:10 1025 30.27 855 25.25 6.2 43.2 48 -4.1 24.6
15:15 1025 30.27 854 25.22 6.3 43.4 48 -3.9 25
15:20 1025 30.27 854 25.22 6.9 44.4 45 -4.3 24.2
15:25 1025 30.27 854 25.22 7.5 45.4 44 -3.9 24.9
15:30 1025 30.27 854 25.22 7 44.6 45 -4.1 24.6
15:35 1025 30.27 854 25.22 6.9 44.4 43 -4.8 23.4
15:40 1025 30.27 854 25.22 7.6 45.6 43 -4.3 24.2
15:45 1025 30.27 854 25.22 8.3 46.9 43 -3.6 25.5
15:50 1025 30.27 854 25.22 7.4 45.3 46 -3.5 25.7
15:55 1025 30.27 854 25.22 7.7 45.9 43 -4.2 24.5
16:00 1025 30.27 854 25.22 8.5 47.2 41 -4.1 24.7
16:05 1025 30.27 854 25.22 8.9 48.1 40 -3.9 25.1
16:10 1025 30.27 854 25.22 8.3 47 41 -4.2 24.5
16:15 1025 30.27 854 25.22 8.3 46.9 43 -3.5 25.7
16:20 1025 30.27 854 25.22 7.1 44.7 47 -3.5 25.6
16:25 1025 30.27 854 25.22 7.7 45.8 43 -4.1 24.7
16:30 1025 30.27 854 25.22 8 46.4 42 -4.3 24.3
16:35 1025 30.27 854 25.22 8.1 46.5 42 -3.9 24.9
16:40 1025 30.27 854 25.22 7.8 46.1 43 -4 24.8
16:45 1025 30.27 854 25.22 8.1 46.5 43 -3.7 25.3
16:50 1025 30.27 854 25.22 8.1 46.7 43 -3.5 25.7
16:55 1025 30.27 854 25.22 7.9 46.3 43 -3.9 25
17:00 1025 30.27 854 25.22 8.1 46.7 43 -3.7 25.3
17:05 1025 30.27 854 25.22 7.9 46.2 43 -4 24.8
17:10 1025 30.27 854 25.22 7.8 46 43 -4.1 24.7
17:15 1025 30.27 854 25.22 8 46.4 42 -4.1 24.6
17:20 1025 30.27 854 25.22 7.8 46.1 48 -2.6 27.4
17:25 1025 30.27 854 25.22 7.2 44.9 47 -3.3 26.1
17:30 1025 30.27 854 25.22 6.4 43.4 50 -3.4 25.9
17:35 1025 30.27 854 25.22 6.2 43.1 50 -3.4 25.9
17:40 1025 30.27 854 25.22 6.2 43.1 50 -3.4 25.8
17:45 1025 30.27 854 25.22 6.2 43.2 50 -3.4 25.8
17:50 1025 30.27 854 25.22 6.5 43.6 49 -3.5 25.7
17:55 1025 30.27 854 25.22 6.5 43.7 50 -3.1 26.4
18:00 1025 30.27 854 25.22 6.3 43.3 51 -3 26.6
18:05 1025 30.27 854 25.22 5.6 42 55 -2.8 27
18:10 1025 30.27 854 25.22 5.2 41.4 55 -3.1 26.4
18:15 1025 30.27 854 25.22 5.2 41.4 55 -3.2 26.2
18:20 1025 30.27 854 25.22 5 41 56 -3 26.7
18:25 1025 30.27 854 25.22 4.5 40.1 57 -3.3 26.1
18:30 1025 30.27 854 25.22 4.3 39.8 57 -3.5 25.7
18:35 1024 30.24 854 25.22 4.4 39.9 58 -3.3 26.1
18:40 1025 30.27 854 25.22 4.3 39.7 58 -3.2 26.3
18:45 1025 30.27 854 25.22 3.7 38.6 62 -2.9 26.8
18:50 1024 30.24 854 25.22 3.1 37.5 64 -3.1 26.4
18:55 1025 30.27 854 25.22 2.9 37.2 65 -3.1 26.4
19:00 1025 30.27 854 25.22 2.9 37.2 65 -3 26.5
19:05 1025 30.27 854 25.22 2.6 36.7 67 -2.9 26.8
19:10 1025 30.27 854 25.22 2.3 36.1 68 -3.1 26.4
19:15 1025 30.27 854 25.22 2.1 35.9 68 -3.2 26.2
19:20 1025 30.27 854 25.22 2.1 35.7 68 -3.2 26.3
19:25 1025 30.27 854 25.22 1.9 35.4 69 -3.2 26.2
19:30 1025 30.27 854 25.22 1.6 34.9 70 -3.4 26
19:35 1025 30.27 854 25.22 1.7 35 69 -3.5 25.7
19:40 1025 30.27 854 25.22 1.8 35.3 68 -3.4 25.9
19:45 1025 30.27 854 25.22 2.5 36.6 65 -3.3 26.1
19:50 1025 30.27 854 25.22 3 37.3 62 -3.7 25.4
19:55 1025 30.27 854 25.22 3.4 38.2 59 -3.7 25.3
20:00 1025 30.27 854 25.22 3.9 39.1 58 -3.6 25.5
20:05 1025 30.27 854 25.22 4.1 39.4 58 -3.3 26.1
20:10 1025 30.27 854 25.22 4.1 39.5 61 -2.7 27.1
20:15 1025 30.27 854 25.22 3.7 38.7 63 -2.8 27
20:20 1025 30.27 854 25.22 2.9 37.2 66 -2.9 26.8
20:25 1025 30.27 854 25.22 2.1 35.7 69 -3.1 26.4
20:30 1025 30.27 854 25.22 2 35.6 69 -3.1 26.5
20:35 1025 30.27 854 25.22 2.1 35.8 68 -3.3 26.1
20:40 1025 30.27 854 25.22 2.8 37 65 -3.1 26.4
20:45 1025 30.27 854 25.22 3 37.3 66 -2.7 27.2
20:50 1025 30.27 854 25.22 2.9 37.2 67 -2.6 27.2
20:55 1025 30.27 854 25.22 3.1 37.5 66 -2.7 27.2
21:00 1025 30.27 854 25.22 3.3 37.9 67 -2.4 27.8
21:05 1025 30.27 854 25.22 3.5 38.3 64 -2.7 27.1
21:10 1025 30.27 854 25.22 4 39.1 62 -2.7 27.1
21:15 1025 30.27 854 25.22 4 39.2 62 -2.7 27.2
21:20 1025 30.27 854 25.22 3.9 39 63 -2.6 27.3
21:25 1025 30.27 854 25.22 4 39.1 61 -2.8 26.9
21:30 1025 30.27 854 25.22 3.9 39 65 -2.1 28.3
21:35 1025 30.27 854 25.22 3 37.5 67 -2.4 27.7
21:40 1025 30.27 854 25.22 3 37.4 66 -2.7 27.1
21:45 1025 30.27 854 25.22 3.3 38 66 -2.3 27.8
21:50 1025 30.27 854 25.22 3.2 37.8 67 -2.3 27.9
21:55 1025 30.27 854 25.22 3 37.5 68 -2.4 27.8
22:00 1025 30.27 854 25.22 2.8 37.1 70 -2.2 28.1
22:05 1025 30.27 854 25.22 2.6 36.7 69 -2.4 27.6
22:10 1025 30.27 854 25.22 2.6 36.8 68 -2.7 27.1
22:15 1025 30.27 854 25.22 2.8 37 68 -2.6 27.4
22:20 1025 30.27 854 25.22 2.8 37.1 67 -2.8 27
22:25 1025 30.27 854 25.22 3.1 37.5 65 -2.9 26.8
22:30 1025 30.27 854 25.22 3.3 37.9 63 -3.2 26.3
22:35 1025 30.27 854 25.22 3.2 37.7 65 -2.8 27
22:40 1025 30.27 854 25.22 3 37.4 67 -2.5 27.4
22:45 1025 30.27 854 25.22 2.9 37.2 68 -2.4 27.7
22:50 1025 30.27 854 25.22 2.7 36.8 70 -2.4 27.8
22:55 1025 30.27 854 25.22 2.6 36.7 70 -2.3 27.8
23:00 1025 30.27 854 25.22 2.6 36.7 70 -2.4 27.7
23:05 1025 30.27 854 25.22 2.7 36.8 68 -2.5 27.4
23:10 1025 30.27 854 25.22 2.8 37 69 -2.3 27.9
23:15 1025 30.27 854 25.22 2.6 36.7 68 -2.8 27
23:20 1025 30.27 854 25.22 2.6 36.7 68 -2.7 27.1
23:25 1025 30.27 854 25.22 2.9 37.3 66 -2.7 27.1
23:30 1024 30.24 854 25.22 2.9 37.2 68 -2.4 27.7
23:35 1024 30.24 854 25.22 2.5 36.5 72 -2.1 28.2
23:40 1024 30.24 854 25.22 2.1 35.7 66 -3.5 25.7
23:45 1024 30.24 854 25.22 2.6 36.6 67 -2.9 26.7
23:50 1024 30.24 854 25.22 3 37.3 65 -3 26.7
23:55 1024 30.24 854 25.22 3 37.4 65 -3 26.7
24:00 1024 30.24 854 25.22 2.8 37.1 65 -3 26.6